Time;durP1;ratioP1;P1;durP2;ratioP2;P2;SDS_P1;SDS_P2;PMS_P1;PMS_P2;Temp;Humidity;BMP_temperature;BMP_pressure;BME280_temperature;BME280_humidity;BME280_pressure;Samples;Min_cycle;Max_cycle;Signal;HPM_P1;HPM_P2
2021/04/05 00:01:28;;;;;;;26.77;7.47;;;7.10;99.90;;;;;;4956861;28;20193;-78
2021/04/05 00:03:54;;;;;;;32.93;8.80;;;7.20;99.90;;;;;;4959285;28;20190;-78
2021/04/05 00:06:21;;;;;;;29.60;7.60;;;7.20;99.90;;;;;;4958446;28;20228;-77
2021/04/05 00:08:47;;;;;;;30.73;8.67;;;7.20;99.90;;;;;;4958234;28;20207;-76
2021/04/05 00:11:13;;;;;;;29.93;7.30;;;7.20;99.90;;;;;;4958665;28;20186;-77
2021/04/05 00:13:43;;;;;;;29.53;7.67;;;7.20;99.90;;;;;;4976409;28;20827;-77
2021/04/05 00:16:12;;;;;;;27.77;9.77;;;7.20;99.90;;;;;;4969721;28;20186;-76
2021/04/05 00:18:37;;;;;;;28.90;7.80;;;7.20;99.90;;;;;;4976067;28;20205;-78
2021/04/05 00:21:10;;;;;;;32.57;8.43;;;7.20;99.90;;;;;;4955361;29;20179;-77
2021/04/05 00:23:37;;;;;;;21.87;6.67;;;7.20;99.90;;;;;;4955737;29;20187;-77
2021/04/05 00:26:03;;;;;;;28.43;7.70;;;7.20;99.90;;;;;;4945343;29;20194;-77
2021/04/05 00:28:29;;;;;;;26.57;8.00;;;7.20;99.90;;;;;;4956709;28;20693;-77
2021/04/05 00:30:55;;;;;;;32.57;8.47;;;7.30;99.90;;;;;;4957171;28;20191;-78
2021/04/05 00:33:21;;;;;;;30.10;8.03;;;7.30;99.90;;;;;;4939508;29;20218;-78
2021/04/05 00:35:47;;;;;;;24.83;7.77;;;7.30;99.90;;;;;;4957043;28;20654;-77
2021/04/05 00:38:13;;;;;;;39.47;9.60;;;7.20;99.90;;;;;;4956761;28;20249;-77
2021/04/05 00:40:44;;;;;;;33.87;8.23;;;7.20;99.90;;;;;;4939493;29;20183;-79
2021/04/05 00:43:11;;;;;;;26.20;7.47;;;7.30;99.90;;;;;;4939527;29;20190;-78
2021/04/05 00:45:37;;;;;;;30.23;7.73;;;7.30;99.90;;;;;;4954288;28;20269;-77
2021/04/05 00:48:04;;;;;;;30.70;8.50;;;7.30;99.90;;;;;;4974530;28;20202;-78
2021/04/05 00:50:33;;;;;;;36.57;8.13;;;7.30;99.90;;;;;;4957074;28;20819;-80
2021/04/05 00:53:03;;;;;;;29.43;8.10;;;7.30;99.90;;;;;;4958360;28;20217;-78
2021/04/05 00:55:29;;;;;;;28.40;7.33;;;7.30;99.90;;;;;;4961554;28;20179;-77
2021/04/05 00:57:56;;;;;;;31.37;8.20;;;7.30;99.90;;;;;;4939032;29;20222;-78
2021/04/05 01:00:49;;;;;;;29.53;6.93;;;7.30;99.90;;;;;;4956421;28;20193;-78
2021/04/05 01:03:17;;;;;;;24.63;6.57;;;7.20;99.90;;;;;;4951760;28;20186;-78
2021/04/05 01:05:44;;;;;;;24.83;7.10;;;7.20;99.90;;;;;;4957956;28;20187;-79
2021/04/05 01:08:11;;;;;;;27.60;6.53;;;7.20;99.90;;;;;;4958489;28;20198;-78
2021/04/05 01:10:37;;;;;;;27.40;6.27;;;7.20;99.90;;;;;;4957669;28;20213;-79
2021/04/05 01:13:03;;;;;;;26.20;6.20;;;7.10;99.90;;;;;;4957498;28;20183;-78
2021/04/05 01:15:29;;;;;;;17.97;5.27;;;7.00;99.90;;;;;;4957777;28;20178;-78
2021/04/05 01:17:54;;;;;;;21.40;5.10;;;7.00;99.90;;;;;;4957493;28;20261;-78
2021/04/05 01:20:20;;;;;;;23.77;5.43;;;7.00;99.90;;;;;;4958150;28;20237;-78
2021/04/05 01:22:49;;;;;;;25.50;4.97;;;7.00;99.90;;;;;;4957921;28;20245;-79
2021/04/05 01:25:16;;;;;;;20.63;4.67;;;7.00;99.90;;;;;;4957601;28;20186;-78
2021/04/05 01:27:43;;;;;;;17.07;4.60;;;7.00;99.90;;;;;;4957873;28;20285;-78
2021/04/05 01:30:27;;;;;;;15.80;4.60;;;6.90;99.90;;;;;;4957604;28;20182;-78
2021/04/05 01:33:10;;;;;;;14.60;4.33;;;6.90;99.90;;;;;;4957529;28;20186;-80
2021/04/05 01:35:44;;;;;;;17.23;4.53;;;6.90;99.90;;;;;;4957887;28;20174;-79
2021/04/05 01:38:11;;;;;;;11.80;2.90;;;6.90;99.90;;;;;;4957657;28;20200;-79
2021/04/05 01:40:40;;;;;;;3.10;0.63;;;6.70;99.90;;;;;;4957766;28;20182;-79
2021/04/05 01:43:07;;;;;;;3.93;0.90;;;6.10;99.90;;;;;;4958085;28;20174;-80
2021/04/05 01:45:33;;;;;;;1.40;0.53;;;6.20;99.90;;;;;;4956848;28;20178;-80
2021/04/05 01:47:59;;;;;;;3.93;0.80;;;6.30;99.90;;;;;;4957622;28;20289;-78
2021/04/05 01:50:25;;;;;;;3.40;1.07;;;6.00;99.90;;;;;;4957436;28;20185;-79
2021/04/05 01:52:50;;;;;;;5.03;0.70;;;5.90;99.90;;;;;;4957402;28;20188;-79
2021/04/05 01:55:16;;;;;;;4.27;0.77;;;5.90;99.90;;;;;;4957361;28;20307;-81
2021/04/05 01:57:43;;;;;;;1.33;0.37;;;5.70;99.90;;;;;;4957686;28;20311;-79
2021/04/05 02:00:19;;;;;;;0.67;0.20;;;5.20;99.90;;;;;;4956706;28;20185;-80
2021/04/05 02:02:45;;;;;;;2.90;0.73;;;5.00;99.90;;;;;;4956610;28;20170;-80
2021/04/05 02:05:12;;;;;;;0.50;0.17;;;5.00;99.90;;;;;;4954441;29;20215;-80
2021/04/05 02:07:39;;;;;;;2.00;0.30;;;4.70;99.90;;;;;;4938579;29;20202;-80
2021/04/05 02:10:11;;;;;;;1.27;0.37;;;4.60;99.90;;;;;;4952899;28;20186;-81
2021/04/05 02:12:38;;;;;;;1.73;0.40;;;4.60;99.90;;;;;;4957505;28;20210;-80
2021/04/05 02:15:14;;;;;;;1.07;0.20;;;4.60;99.90;;;;;;4957268;28;20210;-80
2021/04/05 02:17:40;;;;;;;0.67;0.10;;;4.50;99.90;;;;;;4974537;28;20221;-80
2021/04/05 02:20:10;;;;;;;1.80;0.30;;;4.50;99.90;;;;;;4957423;28;20216;-81
2021/04/05 02:22:41;;;;;;;2.47;0.40;;;4.60;99.90;;;;;;4957440;28;20186;-80
2021/04/05 02:25:12;;;;;;;3.13;0.50;;;4.70;99.90;;;;;;4957324;28;20196;-79
2021/04/05 02:27:38;;;;;;;1.37;0.33;;;4.80;99.90;;;;;;4957091;28;20582;-79
2021/04/05 02:30:05;;;;;;;2.63;0.60;;;4.70;99.90;;;;;;4956943;28;20186;-80
2021/04/05 02:32:31;;;;;;;2.80;0.53;;;4.70;99.90;;;;;;4957276;28;20192;-80
2021/04/05 02:34:57;;;;;;;1.60;0.50;;;4.80;99.90;;;;;;4945536;29;20353;-80
2021/04/05 02:37:23;;;;;;;5.43;0.90;;;4.80;99.90;;;;;;4938206;29;20306;-80
2021/04/05 02:39:48;;;;;;;2.70;0.70;;;4.80;99.90;;;;;;4947682;28;20746;-80
2021/04/05 02:42:19;;;;;;;2.77;0.80;;;4.80;99.90;;;;;;4956811;28;20611;-80
2021/04/05 02:44:45;;;;;;;3.07;0.90;;;4.90;99.90;;;;;;4957274;28;20263;-80
2021/04/05 02:47:12;;;;;;;6.00;0.90;;;4.80;99.90;;;;;;4957102;28;20545;-80
2021/04/05 02:49:40;;;;;;;3.70;1.10;;;4.70;99.90;;;;;;4956758;28;20612;-81
2021/04/05 02:52:06;;;;;;;2.63;0.80;;;4.70;99.90;;;;;;4956335;28;20182;-81
2021/04/05 02:54:32;;;;;;;3.17;0.80;;;4.70;99.90;;;;;;4946497;29;20216;-80
2021/04/05 02:56:58;;;;;;;3.30;0.60;;;4.60;99.90;;;;;;4937819;29;20179;-81
2021/04/05 02:59:24;;;;;;;3.43;0.70;;;4.40;99.90;;;;;;4949104;28;20216;-80
2021/04/05 03:01:51;;;;;;;2.53;0.63;;;4.40;99.90;;;;;;4957048;28;20659;-80
2021/04/05 03:04:17;;;;;;;8.73;0.80;;;4.50;99.90;;;;;;4953752;28;20197;-80
2021/04/05 03:06:43;;;;;;;8.10;1.40;;;4.20;99.90;;;;;;4953662;29;20207;-81
2021/04/05 03:09:09;;;;;;;3.27;0.97;;;4.30;99.90;;;;;;4960404;28;20751;-80
2021/04/05 03:11:42;;;;;;;9.53;1.20;;;4.30;99.90;;;;;;4973723;28;20186;-80
2021/04/05 03:14:10;;;;;;;13.80;2.10;;;4.30;99.90;;;;;;4953348;29;20273;-80
2021/04/05 03:16:40;;;;;;;12.00;1.37;;;4.40;99.90;;;;;;4937868;29;20181;-80
2021/04/05 03:19:06;;;;;;;11.20;1.40;;;4.40;99.90;;;;;;4943076;28;20688;-81
2021/04/05 03:21:32;;;;;;;7.77;1.50;;;4.30;99.90;;;;;;4956854;28;20581;-83
2021/04/05 03:24:02;;;;;;;6.60;1.20;;;4.20;99.90;;;;;;4956649;28;20713;-80
2021/04/05 03:26:28;;;;;;;10.77;1.70;;;4.20;99.90;;;;;;4956987;28;20185;-80
2021/04/05 03:28:54;;;;;;;5.10;1.13;;;4.20;99.90;;;;;;4956510;28;20205;-80
2021/04/05 03:31:24;;;;;;;11.37;1.67;;;4.30;99.90;;;;;;4941553;29;20189;-79
2021/04/05 03:33:52;;;;;;;7.77;1.57;;;4.30;99.90;;;;;;4937328;28;20213;-80
2021/04/05 03:36:42;;;;;;;6.80;1.60;;;4.20;99.90;;;;;;4937615;29;20190;-79
2021/04/05 03:39:09;;;;;;;7.37;1.43;;;4.20;99.90;;;;;;4941735;28;20608;-80
2021/04/05 03:41:47;;;;;;;9.73;1.53;;;4.10;99.90;;;;;;4955814;28;20667;-80
2021/04/05 03:44:38;;;;;;;9.93;1.33;;;4.10;99.90;;;;;;4956235;28;20178;-80
2021/04/05 03:47:28;;;;;;;7.13;1.30;;;4.20;99.90;;;;;;4956492;28;20181;-80
2021/04/05 03:50:16;;;;;;;9.57;1.40;;;4.10;99.90;;;;;;4947101;29;20615;-80
2021/04/05 03:52:56;;;;;;;9.33;1.40;;;4.20;99.90;;;;;;4940506;28;20189;-80
2021/04/05 03:55:26;;;;;;;7.37;0.80;;;4.20;99.90;;;;;;4956635;28;20195;-82
2021/04/05 03:57:54;;;;;;;8.20;2.00;;;4.20;99.90;;;;;;4956366;28;20218;-80
2021/04/05 04:00:22;;;;;;;11.23;1.33;;;4.20;99.90;;;;;;4956285;28;20180;-80
2021/04/05 04:02:52;;;;;;;13.50;1.13;;;4.20;99.90;;;;;;4956275;28;20574;-80
2021/04/05 04:05:28;;;;;;;6.30;1.30;;;4.20;99.90;;;;;;4956506;28;20178;-81
2021/04/05 04:08:10;;;;;;;8.87;1.23;;;4.10;99.90;;;;;;4952934;28;20353;-81
2021/04/05 04:10:38;;;;;;;5.20;1.00;;;4.20;99.90;;;;;;4955909;28;20276;-81
2021/04/05 04:13:07;;;;;;;9.77;1.30;;;4.10;99.90;;;;;;4956357;28;20186;-81
2021/04/05 04:15:34;;;;;;;5.17;1.53;;;4.20;99.90;;;;;;4944252;28;20213;-81
2021/04/05 04:18:02;;;;;;;6.43;1.13;;;4.10;99.90;;;;;;4943466;28;20208;-80
2021/04/05 04:20:30;;;;;;;6.03;0.87;;;4.10;99.90;;;;;;4956006;28;20559;-80
2021/04/05 04:22:57;;;;;;;13.50;1.30;;;4.10;99.90;;;;;;4956976;28;20190;-80
2021/04/05 04:25:23;;;;;;;5.70;1.10;;;4.10;99.90;;;;;;4960265;28;20239;-80
2021/04/05 04:27:49;;;;;;;9.23;1.17;;;4.00;99.90;;;;;;4959782;28;20211;-79
2021/04/05 04:30:33;;;;;;;5.70;0.90;;;3.90;99.90;;;;;;4959653;28;20178;-82
2021/04/05 04:33:09;;;;;;;8.83;1.30;;;4.00;99.90;;;;;;4959428;28;20178;-81
2021/04/05 04:35:36;;;;;;;6.77;1.40;;;4.00;99.90;;;;;;4959826;28;20636;-80
2021/04/05 04:38:04;;;;;;;11.23;1.40;;;3.90;99.90;;;;;;4953086;29;20217;-79
2021/04/05 04:40:32;;;;;;;10.30;2.40;;;4.00;99.90;;;;;;4940229;29;20178;-80
2021/04/05 04:43:00;;;;;;;7.83;1.53;;;4.00;99.90;;;;;;4945029;28;20189;-79
2021/04/05 04:45:26;;;;;;;8.10;1.97;;;3.90;99.90;;;;;;4959381;28;20222;-79
2021/04/05 04:47:54;;;;;;;7.53;1.30;;;3.90;99.90;;;;;;4958945;28;20198;-80
2021/04/05 04:50:21;;;;;;;12.30;1.80;;;3.90;99.90;;;;;;4959185;28;20269;-81
2021/04/05 04:52:47;;;;;;;14.93;1.67;;;3.90;99.90;;;;;;4947498;28;20557;-80
2021/04/05 04:55:15;;;;;;;11.10;1.40;;;3.80;99.90;;;;;;4959050;28;20206;-78
2021/04/05 04:57:40;;;;;;;8.33;1.30;;;3.70;99.90;;;;;;4951746;28;20217;-80
2021/04/05 05:00:07;;;;;;;8.00;1.40;;;3.70;99.90;;;;;;4958860;28;20171;-79
2021/04/05 05:02:35;;;;;;;7.00;0.90;;;3.60;99.90;;;;;;4955382;28;20178;-82
2021/04/05 05:05:02;;;;;;;6.00;0.90;;;3.60;99.90;;;;;;4957542;28;20188;-79
2021/04/05 05:07:30;;;;;;;10.27;1.57;;;3.60;99.90;;;;;;4955481;29;20205;-78
2021/04/05 05:09:55;;;;;;;6.83;1.10;;;3.40;99.90;;;;;;4955372;29;20270;-79
2021/04/05 05:12:21;;;;;;;4.43;0.87;;;3.30;99.90;;;;;;4947131;28;20341;-79
2021/04/05 05:14:47;;;;;;;5.60;0.97;;;3.20;99.90;;;;;;4958575;28;20209;-79
2021/04/05 05:17:14;;;;;;;1.27;0.43;;;3.20;99.90;;;;;;4958444;28;20171;-79
2021/04/05 05:19:41;;;;;;;3.70;0.80;;;3.20;99.90;;;;;;4940493;29;20181;-81
2021/04/05 05:22:08;;;;;;;4.87;0.73;;;3.20;99.90;;;;;;4939350;29;20179;-79
2021/04/05 05:24:35;;;;;;;3.73;0.63;;;3.10;99.90;;;;;;4955634;28;20269;-78
2021/04/05 05:27:02;;;;;;;10.07;1.10;;;3.00;99.90;;;;;;4958026;28;20186;-80
2021/04/05 05:29:28;;;;;;;6.67;1.60;;;3.10;99.90;;;;;;4957739;28;20202;-80
2021/04/05 05:31:54;;;;;;;4.07;1.00;;;3.20;99.90;;;;;;4958090;28;20178;-80
2021/04/05 05:34:21;;;;;;;4.30;0.70;;;3.30;99.90;;;;;;4957833;28;20206;-79
2021/04/05 05:36:48;;;;;;;8.17;0.90;;;3.20;99.90;;;;;;4958325;28;20178;-80
2021/04/05 05:39:16;;;;;;;2.83;0.63;;;3.20;99.90;;;;;;4944487;29;20210;-79
2021/04/05 05:42:03;;;;;;;5.87;1.00;;;3.20;99.90;;;;;;4939085;29;20183;-80
2021/04/05 05:44:51;;;;;;;3.63;0.40;;;3.10;99.90;;;;;;4954327;28;20188;-79
2021/04/05 05:47:27;;;;;;;4.37;0.80;;;2.60;99.90;;;;;;4975473;28;20590;-79
2021/04/05 05:50:05;;;;;;;5.47;0.60;;;2.50;99.90;;;;;;4955809;29;20168;-79
2021/04/05 05:52:51;;;;;;;3.80;0.80;;;2.20;99.90;;;;;;4965404;28;20648;-80
2021/04/05 05:55:47;;;;;;;3.30;0.57;;;1.90;99.90;;;;;;4957273;28;20229;-81
2021/04/05 05:58:53;;;;;;;2.43;0.20;;;1.80;99.90;;;;;;4969375;28;20587;-80
2021/04/05 06:01:30;;;;;;;0.27;0.00;;;1.50;99.90;;;;;;4957664;28;20178;-81
2021/04/05 06:04:27;;;;;;;8.17;0.30;;;1.50;99.90;;;;;;4956847;28;20186;-80
2021/04/05 06:07:16;;;;;;;1.60;0.20;;;1.40;99.90;;;;;;4941640;28;20190;-80
2021/04/05 06:09:54;;;;;;;3.20;0.10;;;1.30;99.90;;;;;;4957533;28;20600;-80
2021/04/05 06:12:49;;;;;;;0.77;0.20;;;1.10;99.90;;;;;;4953327;28;20209;-80
2021/04/05 06:15:25;;;;;;;2.17;0.30;;;1.20;99.90;;;;;;4957718;28;20213;-81
2021/04/05 06:18:09;;;;;;;3.03;0.20;;;1.30;99.90;;;;;;4957636;28;20289;-80
2021/04/05 06:20:53;;;;;;;0.10;0.10;;;1.20;99.90;;;;;;4953921;29;20181;-83
2021/04/05 06:23:40;;;;;;;1.50;0.27;;;1.20;99.90;;;;;;4970602;28;20175;-83
2021/04/05 06:26:17;;;;;;;2.37;0.30;;;1.20;99.90;;;;;;4938796;29;20171;-80
2021/04/05 06:28:57;;;;;;;4.63;0.50;;;1.20;99.90;;;;;;4950195;28;20225;-80
2021/04/05 06:31:39;;;;;;;2.57;0.20;;;1.10;99.90;;;;;;4957828;28;20228;-81
2021/04/05 06:34:34;;;;;;;3.13;0.60;;;0.70;99.90;;;;;;4970662;28;20210;-79
2021/04/05 06:37:15;;;;;;;1.13;0.37;;;0.70;99.90;;;;;;4933745;29;20238;-84
2021/04/05 06:39:44;;;;;;;2.57;0.50;;;0.60;99.90;;;;;;4938571;29;20645;-80
2021/04/05 06:42:46;;;;;;;3.30;0.50;;;0.70;99.90;;;;;;4948164;28;20183;-81
2021/04/05 06:45:46;;;;;;;6.00;0.63;;;0.80;99.90;;;;;;4950482;28;20173;-80
2021/04/05 06:52:08;;;;;;;4.00;0.50;;;0.80;99.90;;;;;;4968477;28;20186;-81
2021/04/05 06:54:51;;;;;;;5.00;0.53;;;0.80;99.90;;;;;;4938712;28;20202;-81
2021/04/05 06:57:54;;;;;;;8.23;0.83;;;0.60;99.90;;;;;;4938410;29;20179;-81
2021/04/05 07:00:40;;;;;;;2.67;0.53;;;0.40;99.90;;;;;;4938439;28;20264;-83
2021/04/05 07:03:17;;;;;;;7.33;0.90;;;0.40;99.90;;;;;;4951033;29;20657;-82
2021/04/05 07:06:16;;;;;;;1.50;0.70;;;0.30;99.90;;;;;;4953561;28;20209;-81
2021/04/05 07:08:41;;;;;;;5.03;0.73;;;0.20;99.90;;;;;;4938368;29;20246;-82
2021/04/05 07:11:28;;;;;;;2.23;0.40;;;0.10;99.90;;;;;;4954139;28;20222;-81
2021/04/05 07:14:16;;;;;;;3.83;0.40;;;0.10;99.90;;;;;;4957878;28;20672;-82
2021/04/05 07:16:45;;;;;;;4.50;0.57;;;0.10;99.90;;;;;;4955802;28;20178;-81
2021/04/05 07:19:30;;;;;;;3.63;0.53;;;0.60;99.90;;;;;;4955351;28;20620;-82
2021/04/05 07:22:24;;;;;;;2.93;0.40;;;1.00;99.90;;;;;;4953885;28;20174;-81
2021/04/05 07:25:04;;;;;;;3.80;0.60;;;0.80;99.90;;;;;;4957618;28;20178;-82
2021/04/05 07:27:48;;;;;;;4.17;0.60;;;0.70;99.90;;;;;;4958389;28;20289;-82
2021/04/05 07:30:24;;;;;;;3.23;0.60;;;0.80;99.90;;;;;;4956874;28;20244;-82
2021/04/05 07:33:28;;;;;;;6.93;0.60;;;0.90;99.90;;;;;;4948956;28;20196;-82
2021/04/05 07:36:25;;;;;;;4.63;0.50;;;0.90;99.90;;;;;;4957624;28;20667;-82
2021/04/05 07:39:02;;;;;;;4.47;0.80;;;1.30;99.90;;;;;;4954664;29;20207;-81
2021/04/05 07:41:28;;;;;;;4.07;0.87;;;1.60;99.90;;;;;;4938969;29;20223;-81
2021/04/05 07:44:03;;;;;;;6.70;1.53;;;1.60;99.90;;;;;;4939334;29;20179;-81
2021/04/05 07:46:47;;;;;;;9.80;1.63;;;1.90;99.90;;;;;;4938306;29;20178;-80
2021/04/05 07:49:27;;;;;;;9.67;1.33;;;2.10;99.90;;;;;;4943353;29;20288;-80
2021/04/05 07:52:00;;;;;;;7.33;1.40;;;2.00;99.90;;;;;;4938816;29;20167;-82
2021/04/05 07:54:34;;;;;;;8.13;1.50;;;2.00;99.90;;;;;;4955822;29;20195;-81
2021/04/05 07:57:15;;;;;;;9.83;2.07;;;2.20;99.90;;;;;;4938688;29;20198;-81
2021/04/05 07:59:47;;;;;;;6.43;1.63;;;2.50;99.90;;;;;;4958492;29;20178;-81
2021/04/05 08:02:35;;;;;;;6.50;1.40;;;2.60;99.90;;;;;;4941874;29;20242;-81
2021/04/05 08:05:27;;;;;;;9.70;2.30;;;2.70;99.90;;;;;;4960376;28;20190;-82
2021/04/05 08:07:53;;;;;;;11.67;3.57;;;3.00;99.90;;;;;;4961437;28;20206;-82
2021/04/05 08:10:52;;;;;;;7.70;2.30;;;3.10;99.90;;;;;;4961933;28;20185;-82
2021/04/05 08:13:33;;;;;;;8.30;2.20;;;3.10;99.90;;;;;;4962303;28;20661;-83
2021/04/05 08:16:20;;;;;;;6.77;1.33;;;3.20;99.90;;;;;;4962742;28;20173;-81
2021/04/05 08:19:16;;;;;;;9.87;2.80;;;3.30;99.90;;;;;;4964750;28;20252;-82
2021/04/05 08:21:54;;;;;;;11.47;2.87;;;2.90;99.90;;;;;;4953435;28;20672;-81
2021/04/05 08:24:36;;;;;;;15.27;4.40;;;2.70;99.90;;;;;;4964839;28;20645;-81
2021/04/05 08:27:50;;;;;;;8.90;2.07;;;2.50;99.90;;;;;;4961291;28;20190;-81
2021/04/05 08:30:35;;;;;;;9.63;2.27;;;2.40;99.90;;;;;;4953501;28;20194;-82
2021/04/05 08:33:18;;;;;;;6.47;1.70;;;2.40;99.90;;;;;;4960961;28;20212;-81
2021/04/05 08:35:51;;;;;;;6.53;1.53;;;2.40;99.90;;;;;;4962558;28;20205;-81
2021/04/05 08:38:38;;;;;;;6.87;1.20;;;2.80;99.90;;;;;;4977976;28;20229;-81
2021/04/05 08:41:27;;;;;;;11.43;1.20;;;2.90;99.90;;;;;;4978663;28;20590;-82
2021/04/05 08:44:14;;;;;;;6.00;1.43;;;3.00;99.90;;;;;;4947427;28;20198;-83
2021/04/05 08:46:50;;;;;;;6.17;0.90;;;2.80;99.90;;;;;;4965526;28;20270;-82
2021/04/05 08:49:20;;;;;;;8.13;1.13;;;2.40;99.90;;;;;;4964738;28;20277;-82
2021/04/05 08:51:50;;;;;;;7.57;1.20;;;1.80;99.90;;;;;;4962864;28;20182;-82
2021/04/05 08:54:23;;;;;;;6.53;1.20;;;1.80;99.90;;;;;;4963478;28;20571;-82
2021/04/05 08:56:57;;;;;;;3.73;0.87;;;2.10;99.90;;;;;;4963807;28;20178;-82
2021/04/05 08:59:59;;;;;;;10.37;1.40;;;2.50;99.90;;;;;;4948166;28;20248;-82
2021/04/05 09:02:43;;;;;;;4.50;0.60;;;2.50;99.90;;;;;;4966388;28;20178;-81
2021/04/05 09:05:22;;;;;;;3.70;0.93;;;2.60;99.90;;;;;;4962785;28;20221;-83
2021/04/05 09:08:15;;;;;;;8.97;1.87;;;2.90;99.90;;;;;;4969303;28;20217;-82
2021/04/05 09:11:05;;;;;;;5.93;1.17;;;3.10;99.90;;;;;;4985879;28;20228;-82
2021/04/05 09:13:39;;;;;;;7.00;0.90;;;3.20;99.90;;;;;;4945468;28;20191;-81
2021/04/05 09:16:24;;;;;;;6.93;1.17;;;3.20;99.90;;;;;;4946339;29;20214;-81
2021/04/05 09:22:12;;;;;;;8.97;1.33;;;2.30;99.90;;;;;;5532063;23;20567;-82
2021/04/05 09:25:24;;;;;;;5.50;1.00;;;2.50;99.90;;;;;;4976989;28;20202;-81
2021/04/05 09:28:15;;;;;;;7.90;0.90;;;2.90;99.90;;;;;;4965296;28;20214;-81
2021/04/05 09:30:47;;;;;;;4.97;1.30;;;3.00;99.90;;;;;;4956033;29;20171;-80
2021/04/05 09:33:44;;;;;;;8.43;0.77;;;3.20;99.90;;;;;;4955945;29;20173;-81
2021/04/05 09:36:44;;;;;;;4.90;0.90;;;3.40;99.90;;;;;;4942271;28;20680;-80
2021/04/05 09:39:47;;;;;;;3.77;0.77;;;3.30;99.90;;;;;;4939106;29;20295;-81
2021/04/05 09:42:50;;;;;;;6.13;1.20;;;3.30;99.90;;;;;;4941162;29;20720;-80
2021/04/05 09:45:30;;;;;;;3.87;0.70;;;3.30;99.90;;;;;;4942519;29;20532;-79
2021/04/05 09:48:14;;;;;;;4.77;0.83;;;2.80;99.90;;;;;;4938228;29;20199;-80
2021/04/05 09:51:14;;;;;;;7.10;0.63;;;2.70;99.90;;;;;;4934335;29;20182;-79
2021/04/05 09:53:43;;;;;;;9.33;0.80;;;2.60;99.90;;;;;;4942795;29;20221;-79
2021/04/05 09:56:10;;;;;;;3.17;0.90;;;2.20;99.90;;;;;;4938607;29;20191;-79
2021/04/05 09:58:45;;;;;;;8.00;1.87;;;2.30;99.90;;;;;;4945762;29;20571;-79
2021/04/05 10:01:23;;;;;;;7.27;1.03;;;2.00;99.90;;;;;;4940030;29;20185;-79
2021/04/05 10:03:55;;;;;;;6.40;0.87;;;1.70;99.90;;;;;;4937487;29;20183;-79
2021/04/05 10:06:24;;;;;;;5.47;0.80;;;0.90;99.90;;;;;;4931979;29;20183;-83
2021/04/05 10:08:59;;;;;;;5.60;1.00;;;0.80;99.90;;;;;;4936332;29;20326;-79
2021/04/05 10:11:31;;;;;;;5.70;0.70;;;0.90;99.90;;;;;;4937198;29;20717;-79
2021/04/05 10:14:02;;;;;;;2.93;0.43;;;1.00;99.90;;;;;;4941159;29;20229;-79
2021/04/05 10:16:30;;;;;;;5.47;0.80;;;1.30;99.90;;;;;;4954072;29;20179;-80
2021/04/05 10:19:01;;;;;;;1.37;0.30;;;1.50;99.90;;;;;;4919413;29;20262;-80
2021/04/05 10:21:28;;;;;;;2.73;0.50;;;1.60;99.90;;;;;;4938011;29;20206;-81
2021/04/05 10:23:57;;;;;;;3.73;0.87;;;1.70;99.90;;;;;;4941441;29;20201;-80
2021/04/05 10:26:34;;;;;;;1.00;0.30;;;1.80;99.90;;;;;;4936360;29;20243;-81
2021/04/05 10:29:15;;;;;;;2.37;0.40;;;1.60;99.90;;;;;;4939395;28;20229;-81
2021/04/05 10:31:44;;;;;;;3.20;0.77;;;1.60;99.90;;;;;;4928787;29;20249;-79
2021/04/05 10:34:25;;;;;;;3.03;0.50;;;1.30;99.90;;;;;;4934494;29;20598;-81
2021/04/05 10:36:57;;;;;;;2.53;0.70;;;1.20;99.90;;;;;;4932343;29;20186;-80
2021/04/05 10:39:36;;;;;;;2.20;0.20;;;1.20;99.90;;;;;;4929407;28;20222;-80
2021/04/05 10:42:20;;;;;;;3.13;0.63;;;1.10;99.90;;;;;;4939837;29;20187;-80
2021/04/05 10:45:13;;;;;;;3.43;0.83;;;1.10;99.90;;;;;;4948055;28;20540;-83
2021/04/05 10:48:10;;;;;;;4.93;1.53;;;1.00;99.90;;;;;;4922832;29;20230;-81
2021/04/05 10:51:17;;;;;;;3.30;0.40;;;1.20;99.90;;;;;;4952776;28;20774;-81
2021/04/05 10:53:47;;;;;;;4.03;0.60;;;1.40;99.90;;;;;;4952981;28;20241;-84
2021/04/05 10:56:14;;;;;;;3.90;0.53;;;1.80;99.90;;;;;;4927843;29;20198;-82
2021/04/05 11:02:36;;;;;;;4.80;1.27;;;2.30;99.90;;;;;;4946891;28;20202;-80
2021/04/05 11:05:09;;;;;;;3.87;1.33;;;2.50;99.90;;;;;;4935779;29;20253;-80
2021/04/05 11:07:57;;;;;;;4.03;0.60;;;2.60;99.90;;;;;;4940554;29;20218;-80
2021/04/05 11:10:29;;;;;;;2.97;0.60;;;2.30;99.90;;;;;;4934596;29;20198;-80
2021/04/05 11:13:07;;;;;;;3.50;0.77;;;2.00;99.90;;;;;;4935781;29;20268;-80
2021/04/05 11:15:38;;;;;;;7.00;1.00;;;1.90;99.90;;;;;;4932113;29;20210;-80
2021/04/05 11:18:24;;;;;;;2.83;0.70;;;2.00;99.90;;;;;;4947446;28;20222;-82
2021/04/05 11:20:51;;;;;;;1.97;0.33;;;2.20;99.90;;;;;;4932046;29;20234;-80
2021/04/05 11:23:18;;;;;;;3.47;0.60;;;2.10;99.90;;;;;;4935449;29;20187;-80
2021/04/05 11:25:51;;;;;;;2.53;0.90;;;2.00;99.90;;;;;;4937272;29;20187;-80
2021/04/05 11:28:22;;;;;;;5.57;1.17;;;2.10;99.90;;;;;;4931359;29;20234;-80
2021/04/05 11:30:54;;;;;;;3.93;0.70;;;2.00;99.90;;;;;;4938176;29;20192;-80
2021/04/05 11:33:34;;;;;;;1.03;0.20;;;2.00;99.90;;;;;;4940740;28;20696;-81
2021/04/05 11:36:03;;;;;;;7.03;1.10;;;2.10;99.90;;;;;;4931595;28;20202;-80
2021/04/05 11:38:30;;;;;;;3.70;0.70;;;2.10;99.90;;;;;;4942196;28;20205;-79
2021/04/05 11:41:02;;;;;;;4.27;0.70;;;2.10;99.90;;;;;;4938950;28;20196;-81
2021/04/05 11:43:36;;;;;;;2.47;0.67;;;2.10;99.90;;;;;;4930422;29;20183;-80
2021/04/05 11:46:06;;;;;;;5.53;1.77;;;2.40;99.90;;;;;;4935264;29;20237;-80
2021/04/05 11:48:32;;;;;;;6.17;0.90;;;2.40;99.90;;;;;;4940484;28;20583;-81
2021/04/05 11:50:58;;;;;;;6.27;0.80;;;2.10;99.90;;;;;;4939231;29;20191;-80
2021/04/05 11:53:31;;;;;;;4.17;0.90;;;1.70;99.90;;;;;;4941197;29;20190;-80
2021/04/05 11:56:10;;;;;;;3.83;0.90;;;1.60;99.90;;;;;;4955430;28;20194;-79
2021/04/05 11:58:41;;;;;;;6.57;1.07;;;1.50;99.90;;;;;;4939268;29;20214;-81
2021/04/05 12:01:12;;;;;;;3.80;0.60;;;1.50;99.90;;;;;;4960857;28;20230;-82
2021/04/05 12:03:59;;;;;;;3.30;0.77;;;1.60;99.90;;;;;;4942641;28;20194;-81
2021/04/05 12:06:45;;;;;;;4.70;1.10;;;1.70;99.90;;;;;;4939253;28;20178;-81
2021/04/05 12:09:36;;;;;;;5.17;1.07;;;1.70;99.90;;;;;;4940533;29;20249;-80
2021/04/05 12:12:05;;;;;;;6.10;1.27;;;1.90;99.90;;;;;;4938984;28;20183;-81
2021/04/05 12:14:32;;;;;;;7.70;1.10;;;2.10;99.90;;;;;;4940504;29;20209;-82
2021/04/05 12:17:02;;;;;;;2.67;0.80;;;2.30;99.90;;;;;;4936963;29;20187;-81
2021/04/05 12:19:37;;;;;;;5.90;1.20;;;2.40;99.90;;;;;;4938592;29;20202;-82
2021/04/05 12:22:03;;;;;;;3.20;0.70;;;2.50;99.90;;;;;;4934072;29;20223;-80
2021/04/05 12:24:39;;;;;;;4.03;0.93;;;2.50;99.90;;;;;;4938956;29;20194;-81
2021/04/05 12:27:07;;;;;;;5.20;0.87;;;2.70;99.90;;;;;;4932485;28;20278;-82
2021/04/05 12:29:33;;;;;;;7.10;0.70;;;2.70;99.90;;;;;;4939825;28;20195;-81
2021/04/05 12:32:02;;;;;;;3.17;0.90;;;3.00;99.90;;;;;;4935805;28;20191;-80
2021/04/05 12:34:30;;;;;;;5.00;1.00;;;3.20;99.90;;;;;;4939421;28;20207;-80
2021/04/05 12:36:58;;;;;;;5.33;0.77;;;3.30;99.90;;;;;;4960878;28;20183;-81
2021/04/05 12:39:32;;;;;;;3.43;0.80;;;3.40;99.90;;;;;;4940823;29;20195;-81
2021/04/05 12:41:58;;;;;;;3.27;0.97;;;3.60;99.90;;;;;;4938425;29;20180;-80
2021/04/05 12:44:30;;;;;;;6.20;0.90;;;3.60;99.90;;;;;;4929637;29;20187;-79
2021/04/05 12:46:58;;;;;;;8.83;1.37;;;3.70;99.90;;;;;;4936977;28;23412;-79
2021/04/05 12:49:27;;;;;;;6.07;1.03;;;4.00;99.90;;;;;;4940537;29;20199;-80
2021/04/05 12:51:59;;;;;;;8.23;1.27;;;4.10;99.90;;;;;;4942990;29;20657;-80
2021/04/05 12:54:28;;;;;;;11.67;1.80;;;4.20;99.90;;;;;;4950465;29;20222;-80
2021/04/05 12:56:58;;;;;;;14.07;2.00;;;4.20;99.90;;;;;;4949586;29;20178;-80
2021/04/05 12:59:26;;;;;;;5.43;1.00;;;4.10;99.90;;;;;;4944796;28;20207;-80
2021/04/05 13:02:20;;;;;;;7.97;1.07;;;3.50;99.90;;;;;;4938719;29;20772;-79
2021/04/05 13:04:56;;;;;;;6.13;0.70;;;3.00;99.90;;;;;;4940112;29;20225;-81
2021/04/05 13:07:31;;;;;;;3.30;0.40;;;2.60;99.90;;;;;;4951708;28;20187;-82
2021/04/05 13:10:04;;;;;;;2.47;0.53;;;2.60;99.90;;;;;;4942997;29;20190;-80
2021/04/05 13:12:53;;;;;;;3.93;0.60;;;2.60;99.90;;;;;;4941450;29;20656;-81
2021/04/05 13:15:29;;;;;;;4.50;0.70;;;2.60;99.90;;;;;;4949984;29;20358;-81
2021/04/05 13:17:56;;;;;;;4.23;0.73;;;2.50;99.90;;;;;;4952434;28;20229;-81
2021/04/05 13:20:31;;;;;;;9.37;1.37;;;2.80;99.90;;;;;;4944292;29;20186;-80
2021/04/05 13:23:01;;;;;;;6.13;0.97;;;3.10;99.90;;;;;;4938152;29;20205;-80
2021/04/05 13:25:37;;;;;;;7.20;1.13;;;3.30;99.90;;;;;;4943453;29;20189;-79
2021/04/05 13:28:05;;;;;;;10.33;2.07;;;3.40;99.90;;;;;;4943617;29;20213;-79
2021/04/05 13:30:34;;;;;;;8.17;1.63;;;3.60;99.90;;;;;;4943977;29;20187;-79
2021/04/05 13:33:09;;;;;;;6.80;1.33;;;3.60;99.90;;;;;;4940206;29;20195;-77
2021/04/05 13:35:35;;;;;;;7.13;1.37;;;3.60;99.90;;;;;;4937289;29;20298;-77
2021/04/05 13:38:04;;;;;;;8.63;1.30;;;3.70;99.90;;;;;;4939405;28;20215;-77
2021/04/05 13:40:33;;;;;;;11.00;1.77;;;3.70;99.90;;;;;;4947833;29;20183;-77
2021/04/05 13:43:05;;;;;;;10.37;1.93;;;3.70;99.90;;;;;;4938797;29;20705;-77
2021/04/05 13:45:36;;;;;;;5.77;1.00;;;3.90;99.90;;;;;;4938117;29;20187;-76